createdAt,value
2022-08-06T00:00:26.842Z,78.21
2022-08-06T00:02:54.913Z,78.09
2022-08-06T00:05:29.917Z,78.03
2022-08-06T00:08:02.538Z,77.97
2022-08-06T00:10:30.623Z,78.10
2022-08-06T00:13:00.213Z,78.20
2022-08-06T00:16:06.915Z,78.18
2022-08-06T00:18:15.116Z,78.16
2022-08-06T00:20:42.774Z,78.08
2022-08-06T00:23:12.551Z,77.89
2022-08-06T00:25:44.842Z,77.62
2022-08-06T00:28:18.741Z,77.67
2022-08-06T00:30:48.016Z,77.74
2022-08-06T00:33:15.827Z,77.88
2022-08-06T00:35:45.467Z,78.03
2022-08-06T00:38:14.701Z,78.15
2022-08-06T00:40:50.267Z,79.23
2022-08-06T00:43:25.553Z,80.02
2022-08-06T00:45:52.415Z,79.87
2022-08-06T00:48:33.127Z,79.77
2022-08-06T00:51:11.630Z,79.48
2022-08-06T00:53:48.461Z,79.53
2022-08-06T00:56:18.666Z,79.53
2022-08-06T00:58:54.105Z,79.32
2022-08-06T01:01:33.049Z,79.02
2022-08-06T01:04:17.647Z,78.92
2022-08-06T01:06:55.944Z,78.97
2022-08-06T01:09:25.496Z,78.51
2022-08-06T01:11:52.388Z,78.22
2022-08-06T01:14:38.942Z,78.08
2022-08-06T01:17:23.558Z,78.36
2022-08-06T01:21:56.718Z,78.23
2022-08-06T01:22:40.903Z,78.15
2022-08-06T01:25:19.981Z,77.63
2022-08-06T01:27:59.455Z,77.44
2022-08-06T01:30:33.410Z,77.49
2022-08-06T01:33:10.476Z,77.51
2022-08-06T01:35:55.401Z,77.45
2022-08-06T01:38:31.170Z,77.24
2022-08-06T01:41:03.399Z,77.07
2022-08-06T01:44:07.207Z,77.28
2022-08-06T01:46:20.937Z,77.95
2022-08-06T01:48:52.085Z,77.75
2022-08-06T01:52:15.046Z,77.24
2022-08-06T01:54:11.692Z,77.47
2022-08-06T01:56:56.911Z,77.90
2022-08-06T01:59:38.215Z,77.99
2022-08-06T02:02:09.181Z,77.38
2022-08-06T02:04:41.373Z,77.73
2022-08-06T02:07:51.483Z,78.00
2022-08-06T02:10:01.447Z,77.85
2022-08-06T02:12:31.065Z,78.24
2022-08-06T02:15:02.124Z,78.29
2022-08-06T02:18:04.414Z,78.24
2022-08-06T02:20:36.899Z,78.04
2022-08-06T02:23:09.559Z,78.21
2022-08-06T02:25:41.277Z,78.36
2022-08-06T02:28:12.212Z,78.48
2022-08-06T02:30:54.806Z,78.43
2022-08-06T02:33:32.383Z,78.83
2022-08-06T02:36:20.531Z,79.21
2022-08-06T02:39:04.126Z,79.57
2022-08-06T02:41:38.500Z,79.97
2022-08-06T02:44:10.869Z,79.78
2022-08-06T02:46:44.683Z,79.52
2022-08-06T02:49:25.458Z,79.74
2022-08-06T02:52:12.645Z,79.94
2022-08-06T02:54:58.603Z,79.93
2022-08-06T02:57:48.553Z,80.02
2022-08-06T03:00:19.750Z,80.18
2022-08-06T03:02:49.389Z,80.53
2022-08-06T03:05:56.014Z,81.67
2022-08-06T03:08:10.717Z,83.29
2022-08-06T03:10:38.871Z,83.99
2022-08-06T03:13:10.960Z,84.22
2022-08-06T03:15:59.651Z,84.18
2022-08-06T03:18:29.216Z,84.18
2022-08-06T03:20:57.540Z,83.91
2022-08-06T03:23:26.743Z,83.41
2022-08-06T03:25:55.326Z,83.17
2022-08-06T03:28:23.663Z,82.69
2022-08-06T03:30:55.455Z,82.36
2022-08-06T03:33:52.898Z,82.09
2022-08-06T03:36:12.771Z,81.73
2022-08-06T03:38:54.617Z,81.44
2022-08-06T03:41:28.942Z,81.24
2022-08-06T03:44:04.409Z,80.78
2022-08-06T03:46:38.703Z,80.41
2022-08-06T03:49:09.976Z,80.04
2022-08-06T03:51:52.457Z,79.86
2022-08-06T03:54:33.448Z,79.53
2022-08-06T03:57:08.069Z,79.58
2022-08-06T03:59:43.777Z,79.39
2022-08-06T04:02:36.717Z,79.02
2022-08-06T04:05:17.088Z,78.53
2022-08-06T04:07:53.801Z,78.30
2022-08-06T04:10:34.634Z,77.86
2022-08-06T04:13:35.548Z,77.52
2022-08-06T04:15:55.845Z,76.94
2022-08-06T04:18:27.260Z,76.61
2022-08-06T04:20:59.598Z,76.29
2022-08-06T04:23:46.391Z,76.15
2022-08-06T04:26:15.592Z,76.02
2022-08-06T04:28:52.865Z,75.67
2022-08-06T04:32:11.746Z,75.47
2022-08-06T04:34:20.587Z,75.05
2022-08-06T04:36:53.901Z,74.55
2022-08-06T04:39:24.936Z,74.48
2022-08-06T04:41:56.652Z,74.14
2022-08-06T04:44:29.204Z,73.96
2022-08-06T04:46:58.670Z,73.35
2022-08-06T04:50:01.345Z,72.79
2022-08-06T04:52:35.976Z,72.21
2022-08-06T04:55:24.001Z,71.61
2022-08-06T04:57:56.951Z,71.27
2022-08-06T05:00:59.221Z,70.33
2022-08-06T05:03:52.958Z,69.40
2022-08-06T05:06:12.878Z,68.53
2022-08-06T05:08:44.625Z,67.89
2022-08-06T05:11:25.563Z,67.32
2022-08-06T05:13:57.616Z,66.58
2022-08-06T05:16:27.300Z,65.84
2022-08-06T05:19:20.149Z,65.19
2022-08-06T05:22:10.443Z,64.26
2022-08-06T05:24:39.505Z,63.10
2022-08-06T05:27:25.620Z,62.44
2022-08-06T05:30:13.121Z,61.76
2022-08-06T05:32:43.778Z,61.68
2022-08-06T05:35:18.005Z,61.96
2022-08-06T05:38:01.513Z,62.08
2022-08-06T05:40:53.398Z,62.05
2022-08-06T05:43:22.754Z,61.84
2022-08-06T05:45:54.727Z,61.90
2022-08-06T05:48:28.928Z,62.34
2022-08-06T05:51:06.708Z,62.63
2022-08-06T05:54:03.752Z,63.01
2022-08-06T05:56:38.306Z,63.20
2022-08-06T05:59:37.374Z,63.36
2022-08-06T06:02:07.150Z,63.18
2022-08-06T06:04:34.748Z,63.58
2022-08-06T06:07:04.848Z,63.82
2022-08-06T06:10:02.923Z,63.69
2022-08-06T06:12:31.709Z,63.96
2022-08-06T06:15:03.754Z,63.45
2022-08-06T06:18:12.524Z,63.19
2022-08-06T06:21:32.044Z,62.88
2022-08-06T06:24:08.036Z,63.49
2022-08-06T06:26:39.426Z,63.71
2022-08-06T06:30:02.749Z,63.85
2022-08-06T06:32:30.838Z,63.77
2022-08-06T06:35:07.091Z,63.69
2022-08-06T06:37:51.976Z,63.09
2022-08-06T06:40:29.357Z,63.13
2022-08-06T06:43:07.114Z,63.43
2022-08-06T06:46:07.377Z,63.33
2022-08-06T06:48:39.134Z,63.81
2022-08-06T06:51:40.807Z,63.50
2022-08-06T06:54:07.234Z,63.21
2022-08-06T06:56:43.173Z,63.43
2022-08-06T06:59:17.837Z,62.86
2022-08-06T07:01:50.943Z,62.62
2022-08-06T07:04:26.798Z,61.95
2022-08-06T07:06:57.645Z,61.88
2022-08-06T07:09:40.221Z,61.87
2022-08-06T07:12:19.843Z,61.79
2022-08-06T07:14:58.613Z,61.72
2022-08-06T07:17:45.548Z,61.88
2022-08-06T07:20:25.902Z,61.53
2022-08-06T07:24:02.986Z,61.58
2022-08-06T07:25:54.267Z,61.43
2022-08-06T07:28:27.800Z,61.37
2022-08-06T07:31:03.511Z,61.09
2022-08-06T07:33:42.617Z,60.97
2022-08-06T07:36:24.639Z,60.89
2022-08-06T07:38:59.824Z,60.83
2022-08-06T07:44:17.819Z,60.73
2022-08-06T07:46:52.237Z,60.69
2022-08-06T07:49:59.202Z,60.80
2022-08-06T07:52:18.266Z,61.27
2022-08-06T07:54:46.775Z,61.64
2022-08-06T07:57:15.333Z,61.94
2022-08-06T07:59:51.142Z,62.35
2022-08-06T08:02:29.663Z,63.00
2022-08-06T08:05:14.249Z,62.07
2022-08-06T08:07:57.163Z,62.25
2022-08-06T08:10:28.838Z,62.28
2022-08-06T08:12:57.708Z,62.18
2022-08-06T08:15:32.443Z,62.35
2022-08-06T08:18:01.714Z,62.55
2022-08-06T08:20:34.149Z,63.17
2022-08-06T08:23:05.609Z,63.55
2022-08-06T08:25:42.999Z,64.03
2022-08-06T08:28:15.093Z,64.71
2022-08-06T08:30:47.876Z,65.70
2022-08-06T08:33:18.552Z,66.46
2022-08-06T08:35:49.759Z,67.12
2022-08-06T08:38:22.593Z,67.76
2022-08-06T08:40:56.379Z,68.46
2022-08-06T08:43:58.535Z,69.25
2022-08-06T08:46:30.532Z,69.59
2022-08-06T08:49:01.833Z,70.02
2022-08-06T08:51:30.861Z,70.45
2022-08-06T08:54:11.842Z,70.88
2022-08-06T08:57:06.118Z,71.30
2022-08-06T08:59:59.630Z,71.53
2022-08-06T09:02:24.391Z,71.66
2022-08-06T09:04:53.088Z,71.79
2022-08-06T09:07:25.928Z,72.28
2022-08-06T09:10:06.388Z,72.40
2022-08-06T09:12:45.428Z,72.86
2022-08-06T09:15:17.556Z,72.88
2022-08-06T09:18:11.669Z,72.94
2022-08-06T09:20:35.637Z,73.41
2022-08-06T09:23:07.400Z,73.61
2022-08-06T09:25:49.315Z,73.63
2022-08-06T09:28:39.685Z,74.21
2022-08-06T09:31:22.171Z,74.32
2022-08-06T09:34:30.196Z,74.65
2022-08-06T09:36:52.217Z,74.71
2022-08-06T09:39:46.314Z,74.46
2022-08-06T09:42:39.211Z,75.21
2022-08-06T09:45:16.605Z,75.49
2022-08-06T09:47:57.667Z,75.24
2022-08-06T09:50:43.496Z,75.87
2022-08-06T09:53:14.962Z,75.63
2022-08-06T09:55:42.601Z,75.33
2022-08-06T09:58:10.206Z,75.63
2022-08-06T10:00:38.987Z,75.60
2022-08-06T10:04:04.976Z,75.42
2022-08-06T10:06:14.752Z,75.51
2022-08-06T10:08:46.058Z,74.53
2022-08-06T10:11:41.494Z,74.63
2022-08-06T10:14:33.839Z,74.20
2022-08-06T10:17:10.541Z,74.05
2022-08-06T10:19:39.472Z,74.19
2022-08-06T10:22:21.555Z,73.81
2022-08-06T10:24:57.354Z,74.01
2022-08-06T10:27:38.040Z,74.04
2022-08-06T10:30:09.488Z,73.89
2022-08-06T10:32:42.338Z,74.09
2022-08-06T10:35:16.112Z,73.93
2022-08-06T10:37:50.756Z,73.49
2022-08-06T10:40:30.431Z,73.53
2022-08-06T10:43:03.583Z,74.19
2022-08-06T10:45:48.614Z,74.70
2022-08-06T10:49:01.552Z,74.83
2022-08-06T10:51:07.613Z,74.84
2022-08-06T10:54:01.725Z,74.75
2022-08-06T10:56:28.260Z,75.07
2022-08-06T10:59:02.215Z,75.35
2022-08-06T11:01:43.949Z,75.69
2022-08-06T11:04:31.453Z,75.36
2022-08-06T11:08:08.714Z,75.39
2022-08-06T11:10:26.920Z,75.71
2022-08-06T11:13:00.043Z,75.99
2022-08-06T11:15:29.319Z,75.55
2022-08-06T11:18:12.388Z,75.92
2022-08-06T11:20:47.111Z,76.23
2022-08-06T11:23:26.219Z,76.21
2022-08-06T11:26:04.964Z,76.15
2022-08-06T11:28:32.677Z,76.21
2022-08-06T11:31:03.370Z,76.20
2022-08-06T11:33:38.219Z,76.37
2022-08-06T11:36:09.701Z,76.53
2022-08-06T11:38:50.676Z,76.29
2022-08-06T11:41:44.639Z,76.21
2022-08-06T11:44:16.971Z,75.44
2022-08-06T11:46:48.452Z,75.32
2022-08-06T11:49:21.952Z,75.03
2022-08-06T11:51:52.658Z,74.75
2022-08-06T11:54:29.036Z,75.00
2022-08-06T11:57:06.001Z,74.63
2022-08-06T12:00:02.762Z,74.94
2022-08-06T12:02:44.284Z,75.49
2022-08-06T12:05:17.315Z,75.91
2022-08-06T12:07:52.297Z,75.36
2022-08-06T12:10:29.228Z,74.97
2022-08-06T12:12:57.422Z,74.08
2022-08-06T12:15:59.666Z,73.71
2022-08-06T12:18:19.236Z,73.73
2022-08-06T12:20:54.512Z,74.23
2022-08-06T12:23:54.170Z,74.37
2022-08-06T12:26:12.789Z,74.29
2022-08-06T12:28:39.774Z,74.22
2022-08-06T12:31:36.514Z,74.18
2022-08-06T12:33:56.042Z,74.65
2022-08-06T12:36:31.753Z,74.80
2022-08-06T12:39:01.187Z,74.64
2022-08-06T12:41:46.113Z,74.70
2022-08-06T12:44:28.509Z,75.00
2022-08-06T12:47:18.659Z,75.06
2022-08-06T12:50:22.744Z,75.22
2022-08-06T12:53:13.282Z,75.09
2022-08-06T12:55:56.487Z,74.92
2022-08-06T12:58:42.270Z,75.47
2022-08-06T13:01:16.263Z,75.53
2022-08-06T13:04:08.944Z,75.86
2022-08-06T13:06:38.690Z,75.87
2022-08-06T13:09:08.479Z,76.03
2022-08-06T13:11:37.517Z,76.16
2022-08-06T13:14:17.040Z,76.09
2022-08-06T13:16:56.660Z,76.02
2022-08-06T13:19:33.191Z,75.62
2022-08-06T13:22:11.387Z,75.59
2022-08-06T13:25:01.695Z,75.62
2022-08-06T13:27:34.891Z,76.03
2022-08-06T13:30:32.048Z,76.10
2022-08-06T13:32:53.877Z,76.35
2022-08-06T13:35:30.383Z,75.91
2022-08-06T13:38:10.414Z,75.75
2022-08-06T13:40:46.475Z,75.70
2022-08-06T13:43:39.603Z,75.20
2022-08-06T13:46:11.613Z,74.99
2022-08-06T13:48:49.032Z,74.42
2022-08-06T13:51:22.176Z,74.22
2022-08-06T13:53:58.133Z,74.35
2022-08-06T13:56:28.527Z,74.06
2022-08-06T13:59:02.475Z,73.76
2022-08-06T14:01:44.832Z,73.47
2022-08-06T14:04:14.561Z,73.23
2022-08-06T14:06:44.778Z,73.25
2022-08-06T14:09:19.785Z,73.22
2022-08-06T14:11:54.165Z,73.54
2022-08-06T14:14:24.614Z,73.76
2022-08-06T14:16:53.589Z,73.22
2022-08-06T14:20:17.422Z,73.10
2022-08-06T14:22:08.489Z,73.13
2022-08-06T14:24:39.378Z,73.01
2022-08-06T14:27:15.538Z,72.94
2022-08-06T14:30:27.968Z,72.68
2022-08-06T14:32:40.595Z,72.64
2022-08-06T14:35:08.614Z,72.29
2022-08-06T14:37:50.587Z,72.28
2022-08-06T14:40:59.693Z,71.92
2022-08-06T14:43:55.969Z,72.09
2022-08-06T14:46:27.017Z,72.09
2022-08-06T14:48:58.223Z,72.48
2022-08-06T14:51:37.736Z,72.48
2022-08-06T14:54:14.632Z,72.37
2022-08-06T14:56:45.251Z,71.89
2022-08-06T14:59:19.617Z,71.31
2022-08-06T15:01:47.297Z,70.49
2022-08-06T15:04:23.836Z,70.58
2022-08-06T15:06:59.226Z,70.02
2022-08-06T15:10:04.576Z,69.93
2022-08-06T15:12:25.935Z,69.57
2022-08-06T15:15:05.217Z,68.94
2022-08-06T15:18:04.051Z,68.57
2022-08-06T15:20:25.351Z,67.99
2022-08-06T15:22:55.920Z,67.65
2022-08-06T15:26:00.419Z,67.38
2022-08-06T15:28:12.234Z,66.75
2022-08-06T15:30:39.518Z,66.64
2022-08-06T15:33:08.096Z,65.51
2022-08-06T15:35:43.510Z,65.25
2022-08-06T15:38:24.647Z,65.19
2022-08-06T15:40:51.492Z,64.85
2022-08-06T15:43:20.275Z,64.56
2022-08-06T15:45:55.252Z,64.35
2022-08-06T15:48:29.300Z,64.36
2022-08-06T15:51:28.809Z,65.13
2022-08-06T15:53:54.787Z,64.88
2022-08-06T15:56:39.398Z,65.16
2022-08-06T15:59:15.228Z,64.49
2022-08-06T16:02:01.338Z,64.28
2022-08-06T16:04:35.354Z,64.40
2022-08-06T16:07:06.006Z,64.49
2022-08-06T16:09:56.219Z,64.73
2022-08-06T16:12:22.686Z,65.38
2022-08-06T16:14:57.195Z,65.38
2022-08-06T16:17:33.345Z,65.18
2022-08-06T16:20:21.095Z,65.59
2022-08-06T16:22:52.473Z,65.73
2022-08-06T16:25:22.962Z,65.28
2022-08-06T16:27:51.966Z,65.28
2022-08-06T16:30:20.144Z,65.75
2022-08-06T16:32:49.020Z,66.01
2022-08-06T16:35:17.842Z,66.60
2022-08-06T16:37:51.822Z,67.00
2022-08-06T16:40:20.136Z,66.87
2022-08-06T16:42:49.311Z,66.31
2022-08-06T16:45:17.401Z,65.07
2022-08-06T16:48:20.212Z,64.49
2022-08-06T16:54:13.914Z,63.51
2022-08-06T16:56:07.924Z,63.44
2022-08-06T16:58:43.520Z,64.14
2022-08-06T17:02:13.929Z,63.85
2022-08-06T17:04:00.513Z,64.22
2022-08-06T17:06:31.522Z,63.71
2022-08-06T17:09:16.497Z,63.86
2022-08-06T17:11:52.190Z,63.71
2022-08-06T17:14:28.083Z,64.83
2022-08-06T17:16:55.152Z,65.39
2022-08-06T17:19:22.368Z,64.65
2022-08-06T17:21:52.971Z,65.20
2022-08-06T17:24:37.054Z,66.01
2022-08-06T17:27:08.779Z,65.86
2022-08-06T17:29:46.762Z,65.91
2022-08-06T17:32:22.771Z,66.67
2022-08-06T17:34:59.641Z,66.63
2022-08-06T17:37:43.394Z,66.50
2022-08-06T17:40:19.097Z,66.35
2022-08-06T17:42:55.554Z,66.81
2022-08-06T17:45:22.807Z,66.86
2022-08-06T17:47:52.527Z,67.14
2022-08-06T17:50:20.719Z,67.33
2022-08-06T17:52:48.071Z,67.82
2022-08-06T17:55:17.227Z,67.55
2022-08-06T17:58:03.726Z,67.68
2022-08-06T18:00:37.057Z,68.32
2022-08-06T18:03:05.143Z,68.35
2022-08-06T18:05:36.232Z,68.60
2022-08-06T18:08:15.222Z,69.52
2022-08-06T18:10:42.862Z,69.65
2022-08-06T18:13:12.091Z,69.87
2022-08-06T18:15:40.995Z,70.01
2022-08-06T18:18:15.329Z,69.73
2022-08-06T18:20:46.341Z,69.85
2022-08-06T18:23:20.756Z,70.03
2022-08-06T18:25:56.033Z,70.15
2022-08-06T18:28:36.453Z,70.39
2022-08-06T18:31:09.769Z,70.29
2022-08-06T18:33:46.432Z,70.80
2022-08-06T18:36:33.212Z,71.10
2022-08-06T18:39:01.377Z,70.98
2022-08-06T18:41:28.312Z,70.64
2022-08-06T18:44:00.018Z,69.88
2022-08-06T18:47:02.611Z,70.22
2022-08-06T18:49:20.418Z,69.96
2022-08-06T18:51:48.003Z,70.21
2022-08-06T18:54:23.102Z,70.35
2022-08-06T18:56:52.499Z,70.19
2022-08-06T18:59:23.139Z,70.52
2022-08-06T19:01:54.884Z,70.84
2022-08-06T19:04:28.501Z,71.06
2022-08-06T19:07:00.213Z,70.56
2022-08-06T19:09:33.640Z,70.94
2022-08-06T19:12:12.376Z,71.72
2022-08-06T19:14:43.767Z,72.11
2022-08-06T19:17:11.958Z,71.96
2022-08-06T19:19:53.747Z,71.61
2022-08-06T19:22:29.180Z,72.06
2022-08-06T19:24:57.297Z,72.80
2022-08-06T19:28:06.956Z,73.15
2022-08-06T19:30:41.015Z,73.33
2022-08-06T19:33:16.003Z,73.52
2022-08-06T19:36:07.231Z,73.46
2022-08-06T19:38:32.615Z,73.63
2022-08-06T19:41:00.884Z,73.98
2022-08-06T19:44:29.002Z,73.88
2022-08-06T19:46:29.905Z,73.96
2022-08-06T19:49:03.133Z,74.23
2022-08-06T19:52:02.280Z,74.32
2022-08-06T19:54:25.935Z,74.39
2022-08-06T19:56:55.138Z,74.67
2022-08-06T20:00:51.327Z,74.84
2022-08-06T20:02:15.700Z,75.00
2022-08-06T20:04:43.480Z,74.90
2022-08-06T20:07:12.012Z,75.10
2022-08-06T20:10:00.347Z,75.09
2022-08-06T20:12:33.961Z,74.63
2022-08-06T20:15:05.118Z,74.78
2022-08-06T20:17:46.201Z,75.22
2022-08-06T20:20:28.932Z,75.72
2022-08-06T20:23:00.494Z,76.60
2022-08-06T20:25:40.623Z,76.88
2022-08-06T20:29:07.597Z,77.40
2022-08-06T20:31:10.739Z,77.80
2022-08-06T20:33:38.220Z,77.78
2022-08-06T20:36:27.824Z,77.77
2022-08-06T20:38:55.539Z,77.63
2022-08-06T20:41:58.118Z,77.66
2022-08-06T20:44:09.446Z,77.45
2022-08-06T20:47:00.885Z,77.35
2022-08-06T20:49:48.099Z,77.49
2022-08-06T20:52:18.028Z,77.70
2022-08-06T20:54:51.939Z,77.64
2022-08-06T20:57:27.730Z,77.56
2022-08-06T20:59:57.989Z,77.15
2022-08-06T21:02:25.716Z,77.20
2022-08-06T21:05:16.043Z,77.03
2022-08-06T21:07:56.560Z,77.00
2022-08-06T21:10:30.419Z,77.14
2022-08-06T21:13:02.895Z,77.35
2022-08-06T21:15:53.826Z,77.96
2022-08-06T21:18:22.067Z,78.23
2022-08-06T21:20:53.952Z,78.20
2022-08-06T21:23:42.182Z,78.45
2022-08-06T21:26:15.465Z,78.81
2022-08-06T21:28:52.422Z,78.72
2022-08-06T21:31:24.258Z,78.94
2022-08-06T21:33:54.748Z,78.98
2022-08-06T21:36:25.795Z,79.03
2022-08-06T21:38:57.094Z,78.72
2022-08-06T21:41:49.896Z,78.83
2022-08-06T21:44:17.582Z,78.82
2022-08-06T21:46:50.033Z,78.91
2022-08-06T21:49:39.854Z,78.66
2022-08-06T21:52:05.015Z,78.86
2022-08-06T21:54:32.703Z,78.82
2022-08-06T21:57:11.773Z,78.85
2022-08-06T21:59:46.202Z,78.76
2022-08-06T22:02:28.037Z,78.33
2022-08-06T22:05:00.341Z,78.26
2022-08-06T22:08:06.222Z,78.33
2022-08-06T22:10:28.603Z,78.47
2022-08-06T22:13:12.607Z,78.43
2022-08-06T22:15:45.996Z,78.51
2022-08-06T22:18:28.003Z,78.43
2022-08-06T22:20:59.501Z,78.36
2022-08-06T22:23:28.835Z,78.12
2022-08-06T22:25:58.243Z,78.02
2022-08-06T22:28:34.284Z,77.87
2022-08-06T22:31:08.413Z,77.88
2022-08-06T22:33:58.372Z,77.83
2022-08-06T22:36:34.828Z,77.66
2022-08-06T22:39:04.491Z,77.66
2022-08-06T22:41:42.675Z,78.18
2022-08-06T22:44:34.223Z,78.11
2022-08-06T22:47:06.353Z,78.09
2022-08-06T22:50:01.257Z,78.24
2022-08-06T22:52:39.228Z,78.17
2022-08-06T22:55:11.645Z,78.34
2022-08-06T22:58:04.096Z,78.28
2022-08-06T23:00:36.739Z,78.43
2022-08-06T23:03:13.399Z,78.29
2022-08-06T23:05:44.291Z,78.17
2022-08-06T23:08:15.209Z,78.09
2022-08-06T23:10:48.265Z,78.33
2022-08-06T23:13:25.465Z,78.47
2022-08-06T23:15:58.505Z,78.64
2022-08-06T23:18:30.617Z,78.45
2022-08-06T23:21:20.353Z,78.38
2022-08-06T23:23:54.085Z,78.18
2022-08-06T23:26:32.056Z,78.21
2022-08-06T23:29:03.974Z,78.15
2022-08-06T23:31:33.975Z,78.21
2022-08-06T23:34:20.800Z,78.15
2022-08-06T23:36:54.168Z,78.20
2022-08-06T23:39:36.602Z,78.24
2022-08-06T23:42:08.764Z,78.29
2022-08-06T23:44:49.020Z,78.41
2022-08-06T23:47:54.247Z,78.16
2022-08-06T23:50:08.425Z,77.97
2022-08-06T23:52:42.072Z,78.08
2022-08-06T23:55:22.677Z,77.75
2022-08-06T23:57:57.559Z,77.21
